Time;durP1;ratioP1;P1;durP2;ratioP2;P2;SDS_P1;SDS_P2;PMS_P1;PMS_P2;Temp;Humidity;BMP_temperature;BMP_pressure;BME280_temperature;BME280_humidity;BME280_pressure;Samples;Min_cycle;Max_cycle;Signal;HPM_P1;HPM_P2
2020/12/23 00:02:11;;;;;;;2.00;1.37;;;12.30;99.90;;;;;;4951143;29;20181;-67
2020/12/23 00:04:37;;;;;;;1.27;1.17;;;12.30;99.90;;;;;;4951147;29;20239;-67
2020/12/23 00:07:06;;;;;;;1.27;1.17;;;12.30;99.90;;;;;;4951134;29;20227;-67
2020/12/23 00:09:32;;;;;;;1.70;1.60;;;12.30;99.90;;;;;;4950507;28;20177;-67
2020/12/23 00:11:57;;;;;;;2.07;1.60;;;12.30;99.90;;;;;;4951074;29;20420;-67
2020/12/23 00:14:23;;;;;;;1.50;1.40;;;12.40;99.90;;;;;;4950818;29;20602;-67
2020/12/23 00:16:49;;;;;;;1.60;1.50;;;12.50;99.90;;;;;;4950330;28;20204;-67
2020/12/23 00:19:15;;;;;;;2.90;1.30;;;12.50;99.90;;;;;;4950193;29;20177;-67
2020/12/23 00:21:41;;;;;;;1.37;1.20;;;12.50;99.90;;;;;;4950762;28;20597;-67
2020/12/23 00:24:06;;;;;;;7.03;6.07;;;12.60;99.90;;;;;;4950456;28;20228;-67
2020/12/23 00:26:32;;;;;;;1.47;1.37;;;12.60;99.90;;;;;;4950654;29;20770;-67
2020/12/23 00:28:58;;;;;;;1.20;1.07;;;12.60;99.90;;;;;;4950278;29;20221;-67
2020/12/23 00:31:23;;;;;;;1.33;1.20;;;12.70;99.90;;;;;;4950392;29;20227;-67
2020/12/23 00:33:49;;;;;;;1.70;1.17;;;12.70;99.90;;;;;;4950371;29;20559;-67
2020/12/23 00:36:15;;;;;;;1.40;1.30;;;12.70;99.90;;;;;;4950040;29;20193;-67
2020/12/23 00:38:41;;;;;;;1.43;1.33;;;12.70;99.90;;;;;;4949973;29;20287;-67
2020/12/23 00:41:10;;;;;;;1.10;1.00;;;12.70;99.90;;;;;;4950007;29;20180;-67
2020/12/23 00:43:36;;;;;;;2.03;1.47;;;12.70;99.90;;;;;;4950288;28;20433;-67
2020/12/23 00:46:02;;;;;;;1.13;1.10;;;12.70;99.90;;;;;;4949952;28;20464;-67
2020/12/23 00:48:28;;;;;;;1.20;1.20;;;12.70;99.90;;;;;;4949649;29;20444;-67
2020/12/23 00:50:54;;;;;;;1.10;1.10;;;12.70;99.90;;;;;;4950129;28;20420;-67
2020/12/23 00:53:19;;;;;;;1.00;1.00;;;12.70;99.90;;;;;;4949831;29;20456;-67
2020/12/23 00:55:45;;;;;;;1.20;1.20;;;12.80;99.90;;;;;;4950310;29;20526;-67
2020/12/23 00:58:11;;;;;;;1.90;1.33;;;12.80;99.90;;;;;;4949472;29;20232;-67
2020/12/23 01:00:36;;;;;;;1.30;1.20;;;12.80;99.90;;;;;;4950176;29;20429;-67
2020/12/23 01:03:02;;;;;;;1.40;1.30;;;12.80;99.90;;;;;;4949824;29;20227;-67
2020/12/23 01:05:27;;;;;;;1.30;1.20;;;12.80;99.90;;;;;;4950172;28;20699;-67
2020/12/23 01:07:53;;;;;;;2.23;1.50;;;12.70;99.90;;;;;;4949804;28;20621;-67
2020/12/23 01:10:18;;;;;;;1.40;1.30;;;12.80;99.90;;;;;;4950042;28;20607;-67
2020/12/23 01:12:44;;;;;;;1.20;1.10;;;12.70;99.90;;;;;;4949880;28;20699;-68
2020/12/23 01:15:09;;;;;;;1.27;1.17;;;12.70;99.90;;;;;;4949682;28;20682;-67
2020/12/23 01:17:36;;;;;;;1.30;1.20;;;12.70;99.90;;;;;;4949494;28;20279;-67
2020/12/23 01:20:03;;;;;;;0.90;0.90;;;12.70;99.90;;;;;;4949333;28;20223;-67
2020/12/23 01:22:28;;;;;;;1.10;1.10;;;12.80;99.90;;;;;;4949803;28;20431;-67
2020/12/23 01:24:54;;;;;;;1.30;1.20;;;12.80;99.90;;;;;;4949658;28;20448;-67
2020/12/23 01:27:19;;;;;;;1.80;1.17;;;12.80;99.90;;;;;;4949624;28;20208;-67
2020/12/23 01:29:45;;;;;;;1.30;1.20;;;12.80;99.90;;;;;;4948854;28;20176;-67
2020/12/23 01:32:10;;;;;;;1.47;1.37;;;12.90;99.90;;;;;;4949487;28;20233;-67
2020/12/23 01:34:36;;;;;;;1.30;0.97;;;12.90;99.90;;;;;;4949693;28;20180;-67
2020/12/23 01:37:01;;;;;;;1.10;1.00;;;12.90;99.90;;;;;;4949253;28;20193;-67
2020/12/23 01:39:27;;;;;;;0.90;0.90;;;12.90;99.90;;;;;;4949390;28;20165;-67
2020/12/23 01:41:57;;;;;;;1.17;1.07;;;12.90;99.90;;;;;;4949411;28;20818;-67
2020/12/23 01:44:22;;;;;;;0.80;0.80;;;12.90;99.90;;;;;;4949692;28;20181;-67
2020/12/23 01:46:49;;;;;;;1.07;0.97;;;12.90;99.90;;;;;;4947667;28;20859;-67
2020/12/23 01:49:16;;;;;;;0.80;0.80;;;13.00;99.90;;;;;;4949359;28;20593;-67
2020/12/23 01:51:42;;;;;;;1.07;0.93;;;13.00;99.90;;;;;;4949657;28;20507;-67
2020/12/23 01:54:12;;;;;;;1.00;1.00;;;13.10;99.90;;;;;;4949258;28;20428;-67
2020/12/23 01:56:41;;;;;;;0.87;0.87;;;13.10;99.90;;;;;;4949799;28;20448;-67
2020/12/23 01:59:07;;;;;;;2.10;1.30;;;13.10;99.90;;;;;;4948880;28;20455;-67
2020/12/23 02:01:38;;;;;;;1.30;1.20;;;13.20;99.90;;;;;;4949289;29;20428;-67
2020/12/23 02:04:04;;;;;;;1.00;0.90;;;13.20;99.90;;;;;;4949225;28;20181;-67
2020/12/23 02:06:33;;;;;;;0.70;0.70;;;13.30;99.90;;;;;;4949150;29;21065;-67
2020/12/23 02:09:01;;;;;;;0.90;0.87;;;13.30;99.90;;;;;;4948523;29;20291;-67
2020/12/23 02:11:27;;;;;;;0.93;0.87;;;13.40;99.90;;;;;;4949052;29;20436;-67
2020/12/23 02:13:53;;;;;;;1.63;0.80;;;13.40;99.90;;;;;;4949074;29;20997;-67
2020/12/23 02:16:18;;;;;;;0.90;0.90;;;13.40;99.90;;;;;;4949049;29;20740;-67
2020/12/23 02:18:44;;;;;;;0.80;0.80;;;13.40;99.90;;;;;;4948817;29;20258;-67
2020/12/23 02:21:10;;;;;;;1.00;0.90;;;13.40;99.90;;;;;;4948947;28;20215;-67
2020/12/23 02:23:35;;;;;;;0.93;0.87;;;13.40;99.90;;;;;;4949081;28;20272;-67
2020/12/23 02:26:01;;;;;;;0.87;0.87;;;13.40;99.90;;;;;;4948718;28;20951;-67
2020/12/23 02:28:26;;;;;;;1.20;1.03;;;13.40;99.90;;;;;;4948634;29;20189;-67
2020/12/23 02:31:00;;;;;;;0.80;0.77;;;13.40;99.90;;;;;;4948813;29;20177;-67
2020/12/23 02:33:25;;;;;;;0.90;0.90;;;13.40;99.90;;;;;;4949208;29;20173;-67
2020/12/23 02:35:51;;;;;;;1.20;1.10;;;13.40;99.90;;;;;;4948858;29;20956;-67
2020/12/23 02:38:17;;;;;;;1.17;1.07;;;13.40;99.90;;;;;;4948359;28;20224;-67
2020/12/23 02:40:42;;;;;;;0.90;0.90;;;13.40;99.90;;;;;;4950201;28;20660;-67
2020/12/23 02:43:08;;;;;;;1.33;0.80;;;13.40;99.90;;;;;;4952359;28;20280;-67
2020/12/23 02:45:33;;;;;;;0.90;0.90;;;13.30;99.90;;;;;;4952647;29;20579;-67
2020/12/23 02:47:59;;;;;;;1.50;1.27;;;13.30;99.90;;;;;;4952292;29;20702;-67
2020/12/23 02:50:24;;;;;;;0.90;0.90;;;13.40;99.90;;;;;;4952916;29;20204;-67
2020/12/23 02:52:50;;;;;;;0.90;0.90;;;13.30;99.90;;;;;;4952307;29;20712;-67
2020/12/23 02:55:15;;;;;;;1.03;0.93;;;13.40;99.90;;;;;;4952363;28;20185;-67
2020/12/23 02:57:41;;;;;;;1.40;1.10;;;13.40;99.90;;;;;;4951740;29;20625;-67
2020/12/23 03:00:06;;;;;;;0.87;0.87;;;13.40;99.90;;;;;;4952002;29;20181;-67
2020/12/23 03:02:32;;;;;;;1.00;0.90;;;13.40;99.90;;;;;;4952118;29;20187;-67
2020/12/23 03:04:58;;;;;;;1.00;0.83;;;13.40;99.90;;;;;;4951996;28;20187;-67
2020/12/23 03:07:23;;;;;;;0.87;0.87;;;13.40;99.90;;;;;;4952290;28;20201;-67
2020/12/23 03:09:49;;;;;;;0.97;0.83;;;13.50;99.90;;;;;;4951747;29;20236;-67
2020/12/23 03:12:14;;;;;;;0.80;0.80;;;13.40;99.90;;;;;;4952009;29;20173;-67
2020/12/23 03:14:40;;;;;;;2.20;1.03;;;13.40;99.90;;;;;;4952057;28;20180;-67
2020/12/23 03:17:05;;;;;;;1.13;1.03;;;13.40;99.90;;;;;;4951757;29;20211;-67
2020/12/23 03:19:31;;;;;;;1.47;1.07;;;13.40;99.90;;;;;;4951631;29;20367;-67
2020/12/23 03:21:56;;;;;;;2.80;0.90;;;13.30;99.90;;;;;;4951720;28;20213;-67
2020/12/23 03:24:22;;;;;;;1.17;1.07;;;13.30;99.90;;;;;;4951661;29;20548;-67
2020/12/23 03:26:47;;;;;;;1.30;0.83;;;13.30;99.90;;;;;;4951842;29;20224;-67
2020/12/23 03:29:13;;;;;;;1.30;1.20;;;13.30;99.90;;;;;;4951711;29;20578;-67
2020/12/23 03:31:40;;;;;;;1.10;1.00;;;13.30;99.90;;;;;;4951704;28;20635;-67
2020/12/23 03:34:05;;;;;;;0.90;0.90;;;13.40;99.90;;;;;;4951879;28;20188;-67
2020/12/23 03:36:31;;;;;;;0.80;0.80;;;13.40;99.90;;;;;;4951886;29;20841;-67
2020/12/23 03:38:57;;;;;;;1.10;1.10;;;13.40;99.90;;;;;;4951175;28;20228;-67
2020/12/23 03:41:22;;;;;;;1.40;1.30;;;13.40;99.90;;;;;;4951858;29;20212;-67
2020/12/23 03:43:48;;;;;;;0.90;0.80;;;13.30;99.90;;;;;;4951371;29;20177;-67
2020/12/23 03:46:13;;;;;;;0.93;0.93;;;13.40;99.90;;;;;;4951348;29;20308;-67
2020/12/23 03:48:39;;;;;;;1.20;0.80;;;13.40;99.90;;;;;;4950699;28;20199;-67
2020/12/23 03:51:05;;;;;;;1.17;0.93;;;13.40;99.90;;;;;;4951114;28;20216;-67
2020/12/23 03:53:30;;;;;;;1.07;0.97;;;13.40;99.90;;;;;;4951040;29;20189;-67
2020/12/23 03:55:56;;;;;;;2.27;0.90;;;13.40;99.90;;;;;;4951262;29;20189;-67
2020/12/23 03:58:22;;;;;;;0.90;0.90;;;13.40;99.90;;;;;;4950767;29;20208;-67
2020/12/23 04:00:47;;;;;;;1.00;1.00;;;13.40;99.90;;;;;;4951062;29;20779;-67
2020/12/23 04:03:13;;;;;;;1.23;1.20;;;13.40;99.90;;;;;;4951248;29;20533;-67
2020/12/23 04:05:39;;;;;;;0.83;0.83;;;13.30;99.90;;;;;;4951035;29;20208;-67
2020/12/23 04:08:05;;;;;;;1.27;1.27;;;13.30;99.90;;;;;;4950770;28;20200;-67
2020/12/23 04:10:31;;;;;;;1.37;1.17;;;13.40;99.90;;;;;;4950712;28;20188;-67
2020/12/23 04:12:57;;;;;;;2.20;1.10;;;13.40;99.90;;;;;;4950831;28;20806;-67
2020/12/23 04:15:23;;;;;;;0.83;0.83;;;13.40;99.90;;;;;;4950886;29;20517;-67
2020/12/23 04:17:50;;;;;;;0.90;0.90;;;13.40;99.90;;;;;;4950314;28;20338;-67
2020/12/23 04:20:15;;;;;;;1.00;1.00;;;13.40;99.90;;;;;;4951117;29;20206;-67
2020/12/23 04:22:41;;;;;;;1.00;0.90;;;13.40;99.90;;;;;;4950639;29;20573;-67
2020/12/23 04:25:07;;;;;;;1.37;1.27;;;13.40;99.90;;;;;;4950282;29;20209;-67
2020/12/23 04:27:34;;;;;;;1.17;1.17;;;13.40;99.90;;;;;;4950273;28;20193;-67
2020/12/23 04:30:00;;;;;;;1.03;0.93;;;13.50;99.90;;;;;;4950675;29;20526;-67
2020/12/23 04:32:26;;;;;;;1.00;1.00;;;13.40;99.90;;;;;;4950684;29;20748;-67
2020/12/23 04:34:52;;;;;;;0.80;0.80;;;13.30;99.90;;;;;;4950713;29;20216;-67
2020/12/23 04:37:17;;;;;;;1.50;1.03;;;13.10;99.90;;;;;;4950481;28;20208;-68
2020/12/23 04:39:43;;;;;;;0.93;0.93;;;13.00;99.90;;;;;;4949925;29;20479;-68
2020/12/23 04:42:09;;;;;;;1.00;1.00;;;12.80;99.90;;;;;;4950550;29;20663;-67
2020/12/23 04:44:35;;;;;;;1.10;1.00;;;12.70;99.90;;;;;;4950529;28;20188;-68
2020/12/23 04:47:02;;;;;;;0.80;0.80;;;12.60;99.90;;;;;;4950394;29;20208;-67
2020/12/23 04:49:35;;;;;;;1.10;1.10;;;12.50;99.90;;;;;;4949946;29;20868;-67
2020/12/23 04:52:04;;;;;;;0.90;0.90;;;12.50;99.90;;;;;;4950520;29;20439;-67
2020/12/23 04:54:30;;;;;;;1.07;1.00;;;12.40;99.90;;;;;;4950067;29;20497;-68
2020/12/23 04:56:55;;;;;;;1.13;1.03;;;12.40;99.90;;;;;;4950420;29;20428;-67
2020/12/23 04:59:21;;;;;;;1.67;1.13;;;12.40;99.90;;;;;;4950066;29;20361;-67
2020/12/23 05:01:46;;;;;;;1.20;1.17;;;12.40;99.90;;;;;;4950059;29;20639;-67
2020/12/23 05:04:12;;;;;;;0.90;0.90;;;12.40;99.90;;;;;;4949349;28;20185;-67
2020/12/23 05:06:38;;;;;;;1.03;1.03;;;12.40;99.90;;;;;;4949657;28;20648;-67
2020/12/23 05:09:05;;;;;;;1.03;0.93;;;12.40;99.90;;;;;;4949562;28;20193;-67
2020/12/23 05:11:33;;;;;;;1.60;1.07;;;12.40;99.90;;;;;;4949795;28;20184;-68
2020/12/23 05:14:06;;;;;;;1.10;1.00;;;12.40;99.90;;;;;;4949929;28;20849;-68
2020/12/23 05:16:32;;;;;;;1.10;1.10;;;12.30;99.90;;;;;;4949555;28;20420;-67
2020/12/23 05:18:59;;;;;;;1.13;1.07;;;12.40;99.90;;;;;;4949379;28;20507;-68
2020/12/23 05:21:26;;;;;;;4.30;1.33;;;12.40;99.90;;;;;;4949800;28;20487;-67
2020/12/23 05:23:53;;;;;;;1.10;1.00;;;12.40;99.90;;;;;;4949590;28;20483;-68
2020/12/23 05:26:20;;;;;;;1.90;0.90;;;12.40;99.90;;;;;;4950468;28;20464;-67
2020/12/23 05:28:46;;;;;;;0.87;0.87;;;12.40;99.90;;;;;;4948891;28;20462;-69
2020/12/23 05:31:17;;;;;;;1.50;1.07;;;12.40;99.90;;;;;;4949723;28;20433;-68
2020/12/23 05:33:44;;;;;;;1.00;1.00;;;12.40;99.90;;;;;;4949360;28;20188;-69
2020/12/23 05:36:13;;;;;;;1.23;1.00;;;12.40;99.90;;;;;;4949333;28;20433;-68
2020/12/23 05:38:38;;;;;;;1.07;0.90;;;12.40;99.90;;;;;;4949183;28;20505;-68
2020/12/23 05:41:06;;;;;;;1.93;1.20;;;12.40;99.90;;;;;;4949636;28;20589;-69
2020/12/23 05:43:32;;;;;;;1.10;1.00;;;12.40;99.90;;;;;;4949597;28;20181;-69
2020/12/23 05:46:00;;;;;;;1.10;0.80;;;12.50;99.90;;;;;;4949241;28;20468;-69
2020/12/23 05:48:30;;;;;;;1.10;1.00;;;12.50;99.90;;;;;;4949079;28;20456;-67
2020/12/23 05:50:56;;;;;;;1.53;1.00;;;12.50;99.90;;;;;;4949144;28;20511;-68
2020/12/23 05:53:21;;;;;;;0.93;0.90;;;12.40;99.90;;;;;;4949863;28;20472;-67
2020/12/23 05:55:49;;;;;;;0.90;0.90;;;12.50;99.90;;;;;;4949226;28;20943;-69
2020/12/23 05:58:30;;;;;;;1.20;1.07;;;12.50;99.90;;;;;;4949168;28;20209;-68
2020/12/23 06:01:00;;;;;;;0.83;0.83;;;12.60;99.90;;;;;;4949136;29;20447;-68
2020/12/23 06:03:42;;;;;;;1.00;1.00;;;12.60;99.90;;;;;;4949556;28;20420;-69
2020/12/23 06:06:08;;;;;;;1.03;1.03;;;12.60;99.90;;;;;;4949308;29;20509;-68
2020/12/23 06:08:39;;;;;;;0.93;0.93;;;12.70;99.90;;;;;;4949183;28;20506;-69
2020/12/23 06:11:23;;;;;;;1.63;1.10;;;12.70;99.90;;;;;;4949624;29;20420;-67
2020/12/23 06:14:03;;;;;;;1.57;1.00;;;12.70;99.90;;;;;;4949777;28;20479;-67
2020/12/23 06:16:33;;;;;;;0.87;0.87;;;12.80;99.90;;;;;;4953335;29;20519;-67
2020/12/23 06:19:00;;;;;;;1.93;1.50;;;12.70;99.90;;;;;;4952618;29;20458;-68
2020/12/23 06:21:27;;;;;;;1.30;1.20;;;12.70;99.90;;;;;;4953149;28;20507;-68
2020/12/23 06:24:16;;;;;;;0.83;0.83;;;12.80;99.90;;;;;;4952101;29;20456;-69
2020/12/23 06:26:46;;;;;;;0.80;0.80;;;12.80;99.90;;;;;;4952981;29;20510;-68
2020/12/23 06:29:15;;;;;;;1.10;1.00;;;12.80;99.90;;;;;;4952198;28;20961;-68
2020/12/23 06:32:02;;;;;;;1.20;0.90;;;12.70;99.90;;;;;;4953051;29;20413;-68
2020/12/23 06:34:39;;;;;;;1.33;0.93;;;12.70;99.90;;;;;;4952683;29;20432;-68
2020/12/23 06:37:23;;;;;;;0.90;0.87;;;12.70;99.90;;;;;;4952522;28;20448;-69
2020/12/23 06:39:49;;;;;;;1.00;0.90;;;12.70;99.90;;;;;;4952274;28;20988;-69
2020/12/23 06:42:14;;;;;;;2.20;1.00;;;12.70;99.90;;;;;;4952503;28;20514;-68
2020/12/23 06:44:43;;;;;;;3.17;1.20;;;12.70;99.90;;;;;;4952337;29;20575;-68
2020/12/23 06:47:13;;;;;;;1.33;1.23;;;12.70;99.90;;;;;;4952785;29;20204;-69
2020/12/23 06:49:41;;;;;;;1.57;1.20;;;12.80;99.90;;;;;;4952571;28;20420;-69
2020/12/23 06:52:21;;;;;;;1.60;1.50;;;12.70;99.90;;;;;;4952437;28;20503;-68
2020/12/23 06:54:52;;;;;;;1.13;0.97;;;12.80;99.90;;;;;;4952685;29;20427;-68
2020/12/23 06:57:38;;;;;;;1.10;1.00;;;12.70;99.90;;;;;;4952134;29;20455;-69
2020/12/23 07:00:04;;;;;;;1.00;1.00;;;12.70;99.90;;;;;;4945045;28;21013;-68
2020/12/23 07:02:34;;;;;;;2.20;0.90;;;12.70;99.90;;;;;;4952277;29;20467;-68
2020/12/23 07:04:59;;;;;;;1.70;1.60;;;12.60;99.90;;;;;;4952404;29;20462;-69
2020/12/23 07:07:36;;;;;;;2.47;1.50;;;12.70;99.90;;;;;;4952214;28;20453;-68
2020/12/23 07:10:18;;;;;;;1.20;1.10;;;12.70;99.90;;;;;;4952381;28;20261;-69
2020/12/23 07:12:55;;;;;;;1.80;1.10;;;12.70;99.90;;;;;;4951764;29;20436;-68
2020/12/23 07:15:28;;;;;;;1.60;1.40;;;12.80;99.90;;;;;;4950577;29;20428;-68
2020/12/23 07:18:12;;;;;;;2.23;1.63;;;12.70;99.90;;;;;;4951153;29;20440;-69
2020/12/23 07:20:45;;;;;;;1.47;1.27;;;12.80;99.90;;;;;;4952025;28;20424;-68
2020/12/23 07:23:12;;;;;;;2.53;1.50;;;12.80;99.90;;;;;;4951554;29;20487;-67
2020/12/23 07:25:49;;;;;;;2.40;1.27;;;12.80;99.90;;;;;;4951713;28;21081;-69
2020/12/23 07:28:22;;;;;;;1.70;1.60;;;12.80;99.90;;;;;;4951666;29;20976;-68
2020/12/23 07:30:47;;;;;;;0.90;0.90;;;12.80;99.90;;;;;;4951934;28;20456;-67
2020/12/23 07:33:21;;;;;;;1.57;1.47;;;12.80;99.90;;;;;;4951713;29;20428;-68
2020/12/23 07:35:49;;;;;;;1.67;1.57;;;12.80;99.90;;;;;;4951328;29;20207;-68
2020/12/23 07:38:16;;;;;;;1.90;1.80;;;12.80;99.90;;;;;;4951092;29;21076;-68
2020/12/23 07:40:42;;;;;;;1.50;1.40;;;12.80;99.90;;;;;;4951390;28;20508;-68
2020/12/23 07:43:09;;;;;;;2.17;1.97;;;12.80;99.90;;;;;;4951544;29;20459;-69
2020/12/23 07:45:36;;;;;;;1.30;1.20;;;12.80;99.90;;;;;;4951037;28;20830;-69
2020/12/23 07:48:07;;;;;;;1.40;1.27;;;12.80;99.90;;;;;;4950790;29;20990;-68
2020/12/23 07:50:35;;;;;;;1.70;1.57;;;12.90;99.90;;;;;;4951006;29;20512;-68
2020/12/23 07:53:21;;;;;;;1.60;1.30;;;12.90;99.90;;;;;;4951261;28;20837;-67
2020/12/23 07:55:49;;;;;;;2.77;1.27;;;12.90;99.90;;;;;;4951401;29;20514;-69
2020/12/23 07:58:15;;;;;;;1.93;1.70;;;12.90;99.90;;;;;;4942723;29;20544;-68
2020/12/23 08:00:44;;;;;;;4.03;2.83;;;12.90;99.90;;;;;;4949294;29;20462;-68
2020/12/23 08:03:11;;;;;;;3.13;2.80;;;12.90;99.90;;;;;;4950813;29;20447;-69
2020/12/23 08:05:37;;;;;;;2.20;1.40;;;12.90;99.90;;;;;;4951041;28;20985;-68
2020/12/23 08:08:03;;;;;;;1.60;1.50;;;13.00;99.90;;;;;;4950329;28;20814;-69
2020/12/23 08:10:28;;;;;;;1.87;1.10;;;13.00;99.90;;;;;;4951052;28;20433;-68
2020/12/23 08:12:58;;;;;;;1.90;1.30;;;13.00;99.90;;;;;;4950826;28;20546;-68
2020/12/23 08:15:25;;;;;;;0.87;0.87;;;13.00;99.90;;;;;;4951269;28;20679;-68
2020/12/23 08:18:04;;;;;;;1.60;1.50;;;13.10;99.90;;;;;;4950634;28;20451;-68
2020/12/23 08:20:30;;;;;;;1.50;1.40;;;13.10;99.90;;;;;;4951236;28;20887;-68
2020/12/23 08:22:58;;;;;;;1.40;1.30;;;13.20;99.90;;;;;;4950975;28;20421;-68
2020/12/23 08:25:25;;;;;;;1.10;1.00;;;13.20;99.90;;;;;;4950218;28;20459;-68
2020/12/23 08:27:52;;;;;;;2.10;1.90;;;13.20;99.90;;;;;;4950530;28;20824;-69
2020/12/23 08:30:22;;;;;;;3.77;1.83;;;13.20;99.90;;;;;;4950652;28;20708;-68
2020/12/23 08:33:07;;;;;;;4.53;2.60;;;13.30;99.90;;;;;;4950645;28;20938;-68
2020/12/23 08:36:00;;;;;;;2.60;2.40;;;13.30;99.90;;;;;;4950176;28;20444;-68
2020/12/23 08:38:25;;;;;;;2.40;1.90;;;13.30;99.90;;;;;;4949267;28;20471;-68
2020/12/23 08:40:53;;;;;;;1.77;1.67;;;13.40;99.90;;;;;;4950231;28;20421;-68
2020/12/23 08:43:29;;;;;;;1.20;1.10;;;13.40;99.90;;;;;;4950668;28;20188;-68
2020/12/23 08:45:57;;;;;;;4.20;3.53;;;13.40;99.90;;;;;;4950442;28;20464;-68
2020/12/23 08:48:25;;;;;;;1.70;1.60;;;13.40;99.90;;;;;;4949994;28;20460;-68
2020/12/23 08:50:57;;;;;;;1.73;1.60;;;13.50;99.90;;;;;;4950636;28;20413;-68
2020/12/23 08:53:38;;;;;;;3.30;3.10;;;13.50;99.90;;;;;;4950084;28;20420;-68
2020/12/23 08:56:27;;;;;;;2.37;2.20;;;13.60;99.90;;;;;;4949086;28;20436;-69
2020/12/23 08:59:05;;;;;;;1.67;1.57;;;13.60;99.90;;;;;;4949550;28;20467;-67
2020/12/23 09:01:32;;;;;;;1.90;1.80;;;13.60;99.90;;;;;;4950225;28;20430;-68
2020/12/23 09:03:57;;;;;;;1.50;1.40;;;13.60;99.90;;;;;;4949498;28;20458;-68
2020/12/23 09:06:23;;;;;;;1.53;1.40;;;13.70;99.90;;;;;;4950090;28;20555;-69
2020/12/23 09:08:48;;;;;;;1.70;1.60;;;13.70;99.90;;;;;;4949475;28;20256;-68
2020/12/23 09:11:14;;;;;;;2.50;2.17;;;13.80;99.90;;;;;;4950482;28;20180;-68
2020/12/23 09:13:39;;;;;;;1.80;1.70;;;13.80;99.90;;;;;;4949897;28;20160;-67
2020/12/23 09:16:05;;;;;;;1.57;1.47;;;13.80;99.90;;;;;;4950052;28;20185;-69
2020/12/23 09:18:30;;;;;;;1.67;1.57;;;13.80;99.90;;;;;;4949932;28;20276;-68
2020/12/23 09:21:02;;;;;;;1.93;1.83;;;13.90;99.90;;;;;;4949574;28;20718;-68
2020/12/23 09:23:27;;;;;;;3.23;2.13;;;13.80;99.90;;;;;;4950174;28;20208;-69
2020/12/23 09:25:54;;;;;;;3.33;1.60;;;13.90;99.90;;;;;;4949341;28;20499;-68
2020/12/23 09:28:20;;;;;;;1.50;1.40;;;13.90;99.90;;;;;;4949596;28;20197;-68
2020/12/23 09:30:51;;;;;;;1.63;1.50;;;13.90;99.90;;;;;;4949690;28;20424;-67
2020/12/23 09:33:21;;;;;;;1.50;1.40;;;13.90;99.90;;;;;;4950057;28;20471;-68
2020/12/23 09:35:52;;;;;;;2.40;1.93;;;14.00;99.90;;;;;;4949802;28;21013;-67
2020/12/23 09:38:27;;;;;;;1.37;1.27;;;14.00;99.90;;;;;;4949510;28;20555;-68
2020/12/23 09:40:55;;;;;;;2.40;2.20;;;14.00;99.90;;;;;;4949753;29;20479;-68
2020/12/23 09:43:23;;;;;;;2.07;1.80;;;14.10;99.90;;;;;;4950316;28;20471;-68
2020/12/23 09:45:50;;;;;;;1.73;1.40;;;14.10;99.90;;;;;;4950380;28;20471;-68
2020/12/23 09:48:17;;;;;;;3.13;1.10;;;14.10;99.90;;;;;;4948580;28;20974;-68
2020/12/23 09:50:43;;;;;;;2.57;1.40;;;14.20;99.90;;;;;;4953856;28;20448;-69
2020/12/23 09:53:10;;;;;;;1.30;1.20;;;14.20;99.90;;;;;;4955798;28;20436;-70
2020/12/23 09:55:39;;;;;;;1.20;1.10;;;14.30;99.90;;;;;;4955901;29;21017;-68
2020/12/23 09:58:04;;;;;;;1.17;1.13;;;14.20;99.90;;;;;;4955282;28;20470;-68
2020/12/23 10:00:30;;;;;;;1.53;1.20;;;14.30;99.90;;;;;;4955527;28;20524;-68
2020/12/23 10:02:55;;;;;;;1.20;1.10;;;14.30;99.90;;;;;;4955730;29;20595;-67
2020/12/23 10:05:21;;;;;;;3.80;1.53;;;14.30;99.90;;;;;;4955473;28;20236;-67
2020/12/23 10:07:47;;;;;;;1.67;1.57;;;14.30;99.90;;;;;;4955348;28;20741;-68
2020/12/23 10:10:12;;;;;;;6.30;1.47;;;14.40;99.90;;;;;;4955721;29;20208;-68
2020/12/23 10:12:38;;;;;;;1.43;1.33;;;14.50;99.90;;;;;;4955898;29;20244;-68
2020/12/23 10:15:06;;;;;;;2.20;1.67;;;14.60;99.90;;;;;;4955533;28;20180;-67
2020/12/23 10:17:32;;;;;;;4.23;3.73;;;14.60;99.90;;;;;;4955583;28;20197;-68
2020/12/23 10:19:57;;;;;;;2.77;2.57;;;14.70;99.90;;;;;;4955048;28;20945;-68
2020/12/23 10:22:23;;;;;;;2.63;2.43;;;14.70;99.90;;;;;;4955736;29;20184;-68
2020/12/23 10:24:48;;;;;;;6.20;2.20;;;14.70;99.90;;;;;;4955673;28;20172;-66
2020/12/23 10:27:14;;;;;;;1.93;1.63;;;14.70;99.90;;;;;;4955359;29;20216;-68
2020/12/23 10:29:39;;;;;;;2.00;1.90;;;14.80;99.90;;;;;;4955610;29;20169;-68
2020/12/23 10:32:05;;;;;;;2.20;2.00;;;14.90;99.90;;;;;;4955659;28;20181;-67
2020/12/23 10:34:30;;;;;;;2.00;1.90;;;15.00;99.90;;;;;;4955983;28;20181;-66
2020/12/23 10:36:56;;;;;;;1.60;1.50;;;15.10;99.90;;;;;;4955251;28;20259;-68
2020/12/23 10:39:21;;;;;;;1.70;1.60;;;15.10;99.90;;;;;;4955315;29;20651;-67
2020/12/23 10:41:52;;;;;;;2.03;1.60;;;15.00;99.90;;;;;;4955134;28;20585;-67
2020/12/23 10:44:17;;;;;;;1.60;1.50;;;15.10;99.90;;;;;;4955353;28;20181;-68
2020/12/23 10:46:43;;;;;;;1.70;1.60;;;15.10;99.90;;;;;;4955138;28;20474;-67
2020/12/23 10:49:08;;;;;;;2.87;2.67;;;15.20;99.90;;;;;;4954632;28;20205;-67
2020/12/23 10:51:34;;;;;;;2.70;2.50;;;15.40;99.90;;;;;;4955382;29;20208;-68
2020/12/23 10:54:00;;;;;;;3.93;1.93;;;15.50;99.90;;;;;;4955369;29;20168;-67
2020/12/23 10:56:25;;;;;;;2.57;2.37;;;15.50;99.90;;;;;;4955477;29;20554;-68
2020/12/23 10:58:51;;;;;;;1.80;1.70;;;15.40;99.90;;;;;;4954588;28;20679;-68
2020/12/23 11:01:20;;;;;;;2.10;1.90;;;15.10;99.90;;;;;;4952786;28;20667;-68
2020/12/23 11:03:46;;;;;;;1.47;1.37;;;14.90;99.90;;;;;;4952025;29;20188;-67
2020/12/23 11:06:14;;;;;;;1.80;1.50;;;14.80;99.90;;;;;;4951970;28;20471;-67
2020/12/23 11:08:39;;;;;;;2.00;1.57;;;14.80;99.90;;;;;;4951546;28;20225;-67
2020/12/23 11:11:05;;;;;;;2.00;1.80;;;14.80;99.90;;;;;;4951929;29;20466;-68
2020/12/23 11:13:30;;;;;;;1.27;1.17;;;14.90;99.90;;;;;;4951955;29;20671;-68
2020/12/23 11:15:56;;;;;;;2.53;2.33;;;14.90;99.90;;;;;;4951927;29;20213;-68
2020/12/23 11:18:21;;;;;;;2.00;1.80;;;15.00;99.90;;;;;;4951841;29;20209;-67
2020/12/23 11:20:47;;;;;;;3.33;1.93;;;14.90;99.90;;;;;;4952020;29;20184;-68
2020/12/23 11:23:26;;;;;;;1.70;1.60;;;14.90;99.90;;;;;;4952473;29;20726;-66
2020/12/23 11:25:52;;;;;;;1.43;1.33;;;14.80;99.90;;;;;;4952239;29;20232;-67
2020/12/23 11:28:17;;;;;;;2.50;1.90;;;14.80;99.90;;;;;;4951359;28;20973;-67
2020/12/23 11:30:44;;;;;;;2.30;1.10;;;14.80;99.90;;;;;;4951930;29;20169;-68
2020/12/23 11:33:09;;;;;;;2.30;1.60;;;14.70;99.90;;;;;;4951528;28;20179;-68
2020/12/23 11:35:35;;;;;;;1.80;1.40;;;14.60;99.90;;;;;;4951820;29;20864;-67
2020/12/23 11:38:00;;;;;;;2.50;1.93;;;14.60;99.90;;;;;;4951061;29;20220;-67
2020/12/23 11:40:26;;;;;;;1.90;1.40;;;14.50;99.90;;;;;;4951512;29;20784;-67
2020/12/23 11:42:52;;;;;;;4.10;3.43;;;14.60;99.90;;;;;;4951210;29;20429;-66
2020/12/23 11:45:17;;;;;;;3.53;2.10;;;14.60;99.90;;;;;;4951583;29;20184;-67
2020/12/23 11:47:43;;;;;;;2.87;1.53;;;14.60;99.90;;;;;;4951275;28;20703;-67
2020/12/23 11:50:09;;;;;;;3.50;2.53;;;14.60;99.90;;;;;;4951322;28;20173;-67
2020/12/23 11:52:35;;;;;;;2.43;2.23;;;14.60;99.90;;;;;;4951381;29;20532;-68
2020/12/23 11:55:00;;;;;;;2.10;1.70;;;14.70;99.90;;;;;;4951070;29;20267;-67
2020/12/23 11:57:26;;;;;;;1.60;1.40;;;14.70;99.90;;;;;;4951132;29;20208;-67
2020/12/23 11:59:51;;;;;;;2.33;1.73;;;14.70;99.90;;;;;;4950543;29;20797;-67
2020/12/23 12:02:17;;;;;;;2.07;1.87;;;14.70;99.90;;;;;;4950561;29;20185;-67
2020/12/23 12:04:42;;;;;;;1.80;1.70;;;14.70;99.90;;;;;;4951011;28;20193;-68
2020/12/23 12:07:08;;;;;;;2.63;1.50;;;14.70;99.90;;;;;;4950967;29;20227;-67
2020/12/23 12:09:33;;;;;;;2.17;1.53;;;14.70;99.90;;;;;;4951344;29;20459;-67
2020/12/23 12:11:59;;;;;;;1.30;1.20;;;14.70;99.90;;;;;;4951221;28;20236;-67
2020/12/23 12:14:24;;;;;;;1.50;1.37;;;14.70;99.90;;;;;;4951193;29;20173;-67
2020/12/23 12:16:50;;;;;;;1.13;1.13;;;14.80;99.90;;;;;;4950909;28;20177;-70
2020/12/23 12:19:16;;;;;;;3.60;1.57;;;14.90;99.90;;;;;;4950953;29;20703;-67
2020/12/23 12:21:41;;;;;;;1.50;1.40;;;14.90;99.90;;;;;;4950945;29;20212;-67
2020/12/23 12:24:07;;;;;;;1.93;1.50;;;14.90;99.90;;;;;;4951212;29;20208;-67
2020/12/23 12:26:33;;;;;;;1.43;1.33;;;14.90;99.90;;;;;;4950487;28;20239;-67
2020/12/23 12:29:00;;;;;;;1.50;1.40;;;14.90;99.90;;;;;;4950290;28;20193;-67
2020/12/23 12:31:26;;;;;;;3.10;2.50;;;14.90;99.90;;;;;;4950621;29;20429;-67
2020/12/23 12:33:52;;;;;;;1.53;1.43;;;14.90;99.90;;;;;;4950225;29;20456;-67
2020/12/23 12:36:17;;;;;;;1.83;1.73;;;14.90;99.90;;;;;;4950412;28;20854;-67
2020/12/23 12:38:43;;;;;;;1.87;1.70;;;14.90;99.90;;;;;;4949865;29;20285;-67
2020/12/23 12:41:09;;;;;;;3.03;2.23;;;14.90;99.90;;;;;;4950679;29;20191;-67
2020/12/23 12:43:34;;;;;;;3.33;2.63;;;14.90;99.90;;;;;;4950041;29;20647;-67
2020/12/23 12:46:00;;;;;;;2.00;1.80;;;14.90;99.90;;;;;;4950125;29;20205;-67
2020/12/23 12:48:25;;;;;;;4.10;3.70;;;14.90;99.90;;;;;;4949293;29;20185;-67
2020/12/23 12:50:51;;;;;;;2.50;2.30;;;14.90;99.90;;;;;;4949990;29;20209;-67